sensor_id;sensor_type;location;lat;lon;timestamp;P1;durP1;ratioP1;P2;durP2;ratioP2
14272;SDS011;7220;49.450;11.052;2022-09-02T00:02:25;2.22;;;2.00;;
14272;SDS011;7220;49.450;11.052;2022-09-02T00:06:26;3.25;;;2.13;;
14272;SDS011;7220;49.450;11.052;2022-09-02T00:10:28;2.45;;;2.00;;
14272;SDS011;7220;49.450;11.052;2022-09-02T00:14:30;4.07;;;1.90;;
14272;SDS011;7220;49.450;11.052;2022-09-02T00:18:35;2.55;;;2.15;;
14272;SDS011;7220;49.450;11.052;2022-09-02T00:22:35;2.75;;;2.22;;
14272;SDS011;7220;49.450;11.052;2022-09-02T00:26:35;2.40;;;2.20;;
14272;SDS011;7220;49.450;11.052;2022-09-02T00:30:36;2.33;;;1.90;;
14272;SDS011;7220;49.450;11.052;2022-09-02T00:34:37;2.95;;;2.03;;
14272;SDS011;7220;49.450;11.052;2022-09-02T00:38:38;2.65;;;2.33;;
14272;SDS011;7220;49.450;11.052;2022-09-02T00:42:39;2.92;;;2.05;;
14272;SDS011;7220;49.450;11.052;2022-09-02T00:46:39;2.15;;;1.88;;
14272;SDS011;7220;49.450;11.052;2022-09-02T00:50:40;2.00;;;1.90;;
14272;SDS011;7220;49.450;11.052;2022-09-02T00:55:14;2.30;;;2.10;;
14272;SDS011;7220;49.450;11.052;2022-09-02T00:59:12;2.15;;;1.70;;
14272;SDS011;7220;49.450;11.052;2022-09-02T01:03:20;2.35;;;2.15;;
14272;SDS011;7220;49.450;11.052;2022-09-02T01:07:22;3.58;;;2.33;;
14272;SDS011;7220;49.450;11.052;2022-09-02T01:11:27;5.28;;;2.25;;
14272;SDS011;7220;49.450;11.052;2022-09-02T01:15:35;2.60;;;1.98;;
14272;SDS011;7220;49.450;11.052;2022-09-02T01:19:43;5.10;;;2.20;;
14272;SDS011;7220;49.450;11.052;2022-09-02T01:23:49;3.70;;;2.53;;
14272;SDS011;7220;49.450;11.052;2022-09-02T01:27:50;2.60;;;2.22;;
14272;SDS011;7220;49.450;11.052;2022-09-02T01:31:50;3.40;;;2.15;;
14272;SDS011;7220;49.450;11.052;2022-09-02T01:35:52;4.35;;;2.22;;
14272;SDS011;7220;49.450;11.052;2022-09-02T01:39:53;2.10;;;1.85;;
14272;SDS011;7220;49.450;11.052;2022-09-02T01:43:53;2.05;;;1.85;;
14272;SDS011;7220;49.450;11.052;2022-09-02T01:47:55;2.72;;;2.28;;
14272;SDS011;7220;49.450;11.052;2022-09-02T01:51:55;4.25;;;2.40;;
14272;SDS011;7220;49.450;11.052;2022-09-02T01:55:55;2.20;;;2.03;;
14272;SDS011;7220;49.450;11.052;2022-09-02T01:59:56;4.05;;;2.35;;
14272;SDS011;7220;49.450;11.052;2022-09-02T02:03:56;4.75;;;2.20;;
14272;SDS011;7220;49.450;11.052;2022-09-02T02:07:57;4.55;;;1.88;;
14272;SDS011;7220;49.450;11.052;2022-09-02T02:11:57;3.55;;;2.20;;
14272;SDS011;7220;49.450;11.052;2022-09-02T02:15:58;3.70;;;2.55;;
14272;SDS011;7220;49.450;11.052;2022-09-02T02:19:58;3.15;;;2.67;;
14272;SDS011;7220;49.450;11.052;2022-09-02T02:23:59;3.03;;;2.65;;
14272;SDS011;7220;49.450;11.052;2022-09-02T02:28:02;2.60;;;2.40;;
14272;SDS011;7220;49.450;11.052;2022-09-02T02:32:02;2.83;;;2.30;;
14272;SDS011;7220;49.450;11.052;2022-09-02T02:36:03;3.55;;;2.15;;
14272;SDS011;7220;49.450;11.052;2022-09-02T02:40:05;2.50;;;2.30;;
14272;SDS011;7220;49.450;11.052;2022-09-02T02:44:07;4.93;;;2.28;;
14272;SDS011;7220;49.450;11.052;2022-09-02T02:48:07;2.92;;;2.15;;
14272;SDS011;7220;49.450;11.052;2022-09-02T02:52:08;2.97;;;2.40;;
14272;SDS011;7220;49.450;11.052;2022-09-02T02:56:09;2.75;;;2.40;;
14272;SDS011;7220;49.450;11.052;2022-09-02T03:04:18;3.78;;;2.10;;
14272;SDS011;7220;49.450;11.052;2022-09-02T03:08:19;2.22;;;1.98;;
14272;SDS011;7220;49.450;11.052;2022-09-02T03:12:20;2.85;;;2.13;;
14272;SDS011;7220;49.450;11.052;2022-09-02T03:16:20;2.45;;;2.15;;
14272;SDS011;7220;49.450;11.052;2022-09-02T03:20:22;2.83;;;2.00;;
14272;SDS011;7220;49.450;11.052;2022-09-02T03:24:23;3.40;;;2.20;;
14272;SDS011;7220;49.450;11.052;2022-09-02T03:28:23;2.47;;;2.28;;
14272;SDS011;7220;49.450;11.052;2022-09-02T03:32:23;3.20;;;2.25;;
14272;SDS011;7220;49.450;11.052;2022-09-02T03:36:26;6.10;;;2.13;;
14272;SDS011;7220;49.450;11.052;2022-09-02T03:40:31;3.67;;;1.98;;
14272;SDS011;7220;49.450;11.052;2022-09-02T03:44:32;2.33;;;1.92;;
14272;SDS011;7220;49.450;11.052;2022-09-02T03:48:33;2.03;;;1.83;;
14272;SDS011;7220;49.450;11.052;2022-09-02T03:52:33;2.30;;;1.88;;
14272;SDS011;7220;49.450;11.052;2022-09-02T03:56:33;2.95;;;2.20;;
14272;SDS011;7220;49.450;11.052;2022-09-02T04:00:34;2.43;;;1.97;;
14272;SDS011;7220;49.450;11.052;2022-09-02T04:04:34;3.10;;;2.15;;
14272;SDS011;7220;49.450;11.052;2022-09-02T04:08:35;3.27;;;2.20;;
14272;SDS011;7220;49.450;11.052;2022-09-02T04:12:36;2.75;;;2.13;;
14272;SDS011;7220;49.450;11.052;2022-09-02T04:16:37;4.97;;;1.52;;
14272;SDS011;7220;49.450;11.052;2022-09-02T04:20:39;3.47;;;2.13;;
14272;SDS011;7220;49.450;11.052;2022-09-02T04:24:40;3.58;;;2.10;;
14272;SDS011;7220;49.450;11.052;2022-09-02T04:28:40;2.95;;;1.75;;
14272;SDS011;7220;49.450;11.052;2022-09-02T04:32:41;3.70;;;2.10;;
14272;SDS011;7220;49.450;11.052;2022-09-02T04:36:41;3.38;;;2.17;;
14272;SDS011;7220;49.450;11.052;2022-09-02T04:40:42;2.92;;;2.10;;
14272;SDS011;7220;49.450;11.052;2022-09-02T04:44:44;2.58;;;2.25;;
14272;SDS011;7220;49.450;11.052;2022-09-02T04:48:45;4.82;;;2.28;;
14272;SDS011;7220;49.450;11.052;2022-09-02T04:52:46;4.25;;;2.40;;
14272;SDS011;7220;49.450;11.052;2022-09-02T04:56:47;2.30;;;1.90;;
14272;SDS011;7220;49.450;11.052;2022-09-02T05:00:47;2.40;;;2.20;;
14272;SDS011;7220;49.450;11.052;2022-09-02T05:04:47;2.05;;;1.95;;
14272;SDS011;7220;49.450;11.052;2022-09-02T05:08:48;3.80;;;2.40;;
14272;SDS011;7220;49.450;11.052;2022-09-02T05:12:49;2.70;;;2.13;;
14272;SDS011;7220;49.450;11.052;2022-09-02T05:16:50;3.42;;;2.33;;
14272;SDS011;7220;49.450;11.052;2022-09-02T05:20:54;4.40;;;2.47;;
14272;SDS011;7220;49.450;11.052;2022-09-02T05:24:55;3.40;;;2.00;;
14272;SDS011;7220;49.450;11.052;2022-09-02T05:28:55;5.00;;;2.15;;
14272;SDS011;7220;49.450;11.052;2022-09-02T05:32:56;2.63;;;2.10;;
14272;SDS011;7220;49.450;11.052;2022-09-02T05:36:56;2.05;;;1.95;;
14272;SDS011;7220;49.450;11.052;2022-09-02T05:40:57;2.58;;;2.22;;
14272;SDS011;7220;49.450;11.052;2022-09-02T05:44:58;3.08;;;2.53;;
14272;SDS011;7220;49.450;11.052;2022-09-02T05:48:59;3.60;;;2.45;;
14272;SDS011;7220;49.450;11.052;2022-09-02T05:53:05;3.78;;;2.80;;
14272;SDS011;7220;49.450;11.052;2022-09-02T05:57:12;3.50;;;2.22;;
14272;SDS011;7220;49.450;11.052;2022-09-02T06:01:15;3.47;;;2.17;;
14272;SDS011;7220;49.450;11.052;2022-09-02T06:05:16;3.72;;;2.03;;
14272;SDS011;7220;49.450;11.052;2022-09-02T06:09:19;3.30;;;2.45;;
14272;SDS011;7220;49.450;11.052;2022-09-02T06:13:21;2.92;;;2.30;;
14272;SDS011;7220;49.450;11.052;2022-09-02T06:17:21;2.38;;;2.03;;
14272;SDS011;7220;49.450;11.052;2022-09-02T06:21:22;3.03;;;2.35;;
14272;SDS011;7220;49.450;11.052;2022-09-02T06:25:22;5.10;;;2.50;;
14272;SDS011;7220;49.450;11.052;2022-09-02T06:29:23;3.30;;;2.33;;
14272;SDS011;7220;49.450;11.052;2022-09-02T06:33:24;4.00;;;2.45;;
14272;SDS011;7220;49.450;11.052;2022-09-02T06:37:25;3.92;;;2.25;;
14272;SDS011;7220;49.450;11.052;2022-09-02T06:41:29;2.90;;;2.40;;
14272;SDS011;7220;49.450;11.052;2022-09-02T06:45:32;2.80;;;2.25;;
14272;SDS011;7220;49.450;11.052;2022-09-02T06:49:32;2.90;;;2.00;;
14272;SDS011;7220;49.450;11.052;2022-09-02T06:53:32;2.30;;;2.10;;
14272;SDS011;7220;49.450;11.052;2022-09-02T06:57:33;4.18;;;2.15;;
14272;SDS011;7220;49.450;11.052;2022-09-02T07:01:34;2.67;;;2.22;;
14272;SDS011;7220;49.450;11.052;2022-09-02T07:05:35;2.92;;;2.20;;
14272;SDS011;7220;49.450;11.052;2022-09-02T07:09:36;2.43;;;2.20;;
14272;SDS011;7220;49.450;11.052;2022-09-02T07:13:36;4.22;;;2.20;;
14272;SDS011;7220;49.450;11.052;2022-09-02T07:17:36;2.47;;;2.10;;
14272;SDS011;7220;49.450;11.052;2022-09-02T07:21:37;3.05;;;1.90;;
14272;SDS011;7220;49.450;11.052;2022-09-02T07:25:39;3.00;;;2.10;;
14272;SDS011;7220;49.450;11.052;2022-09-02T07:29:40;2.40;;;2.20;;
14272;SDS011;7220;49.450;11.052;2022-09-02T07:33:43;2.53;;;2.20;;
14272;SDS011;7220;49.450;11.052;2022-09-02T07:37:44;3.42;;;2.50;;
14272;SDS011;7220;49.450;11.052;2022-09-02T07:41:45;4.93;;;3.35;;
14272;SDS011;7220;49.450;11.052;2022-09-02T07:45:49;4.10;;;2.40;;
14272;SDS011;7220;49.450;11.052;2022-09-02T07:49:49;3.50;;;1.90;;
14272;SDS011;7220;49.450;11.052;2022-09-02T07:53:49;2.37;;;2.17;;
14272;SDS011;7220;49.450;11.052;2022-09-02T07:57:51;2.45;;;2.25;;
14272;SDS011;7220;49.450;11.052;2022-09-02T08:01:53;2.83;;;2.38;;
14272;SDS011;7220;49.450;11.052;2022-09-02T08:05:53;2.17;;;1.98;;
14272;SDS011;7220;49.450;11.052;2022-09-02T08:09:56;3.70;;;2.03;;
14272;SDS011;7220;49.450;11.052;2022-09-02T08:13:59;6.03;;;2.67;;
14272;SDS011;7220;49.450;11.052;2022-09-02T08:18:00;2.92;;;2.17;;
14272;SDS011;7220;49.450;11.052;2022-09-02T08:22:05;3.90;;;2.63;;
14272;SDS011;7220;49.450;11.052;2022-09-02T08:26:05;4.95;;;2.17;;
14272;SDS011;7220;49.450;11.052;2022-09-02T08:30:06;2.10;;;1.90;;
14272;SDS011;7220;49.450;11.052;2022-09-02T08:34:10;3.63;;;2.35;;
14272;SDS011;7220;49.450;11.052;2022-09-02T08:38:10;1.97;;;1.77;;
14272;SDS011;7220;49.450;11.052;2022-09-02T08:42:21;2.53;;;2.00;;
14272;SDS011;7220;49.450;11.052;2022-09-02T08:46:23;2.65;;;2.08;;
14272;SDS011;7220;49.450;11.052;2022-09-02T08:50:26;3.47;;;2.50;;
14272;SDS011;7220;49.450;11.052;2022-09-02T08:54:30;5.03;;;2.67;;
14272;SDS011;7220;49.450;11.052;2022-09-02T08:58:35;3.17;;;1.90;;
14272;SDS011;7220;49.450;11.052;2022-09-02T09:07:03;2.78;;;2.08;;
14272;SDS011;7220;49.450;11.052;2022-09-02T09:11:19;3.65;;;2.08;;
14272;SDS011;7220;49.450;11.052;2022-09-02T09:15:32;2.38;;;1.52;;
14272;SDS011;7220;49.450;11.052;2022-09-02T09:19:51;2.33;;;1.98;;
14272;SDS011;7220;49.450;11.052;2022-09-02T09:23:53;4.43;;;1.30;;
14272;SDS011;7220;49.450;11.052;2022-09-02T09:27:55;2.40;;;1.50;;
14272;SDS011;7220;49.450;11.052;2022-09-02T09:31:57;2.13;;;1.92;;
14272;SDS011;7220;49.450;11.052;2022-09-02T09:35:59;6.43;;;2.40;;
14272;SDS011;7220;49.450;11.052;2022-09-02T09:48:48;2.92;;;1.83;;
14272;SDS011;7220;49.450;11.052;2022-09-02T09:52:48;2.78;;;1.83;;
14272;SDS011;7220;49.450;11.052;2022-09-02T09:56:49;2.97;;;1.57;;
14272;SDS011;7220;49.450;11.052;2022-09-02T10:00:50;2.85;;;1.58;;
14272;SDS011;7220;49.450;11.052;2022-09-02T10:05:08;2.30;;;1.40;;
14272;SDS011;7220;49.450;11.052;2022-09-02T10:13:22;1.60;;;1.50;;
14272;SDS011;7220;49.450;11.052;2022-09-02T10:30:25;1.65;;;1.20;;
14272;SDS011;7220;49.450;11.052;2022-09-02T10:34:30;2.25;;;1.90;;
14272;SDS011;7220;49.450;11.052;2022-09-02T10:38:42;2.55;;;1.67;;
14272;SDS011;7220;49.450;11.052;2022-09-02T10:51:05;1.88;;;1.45;;
14272;SDS011;7220;49.450;11.052;2022-09-02T10:59:37;2.03;;;1.60;;
14272;SDS011;7220;49.450;11.052;2022-09-02T11:03:45;1.55;;;1.45;;
14272;SDS011;7220;49.450;11.052;2022-09-02T11:07:51;1.80;;;1.70;;
14272;SDS011;7220;49.450;11.052;2022-09-02T11:16:13;2.85;;;1.98;;
14272;SDS011;7220;49.450;11.052;2022-09-02T11:20:35;1.92;;;1.55;;
14272;SDS011;7220;49.450;11.052;2022-09-02T11:29:06;2.97;;;1.65;;
14272;SDS011;7220;49.450;11.052;2022-09-02T11:33:18;2.40;;;1.42;;
14272;SDS011;7220;49.450;11.052;2022-09-02T11:37:23;2.80;;;1.27;;
14272;SDS011;7220;49.450;11.052;2022-09-02T11:53:56;3.15;;;1.58;;
14272;SDS011;7220;49.450;11.052;2022-09-02T11:58:00;3.13;;;1.60;;
14272;SDS011;7220;49.450;11.052;2022-09-02T12:02:01;2.50;;;1.48;;
14272;SDS011;7220;49.450;11.052;2022-09-02T12:06:06;1.20;;;1.10;;
14272;SDS011;7220;49.450;11.052;2022-09-02T12:10:09;1.77;;;1.55;;
14272;SDS011;7220;49.450;11.052;2022-09-02T12:22:53;1.40;;;1.25;;
14272;SDS011;7220;49.450;11.052;2022-09-02T12:34:54;2.35;;;1.30;;
14272;SDS011;7220;49.450;11.052;2022-09-02T12:43:30;4.38;;;1.27;;
14272;SDS011;7220;49.450;11.052;2022-09-02T12:51:52;1.92;;;1.40;;
14272;SDS011;7220;49.450;11.052;2022-09-02T12:56:15;2.00;;;1.27;;
14272;SDS011;7220;49.450;11.052;2022-09-02T13:00:34;3.35;;;1.42;;
14272;SDS011;7220;49.450;11.052;2022-09-02T13:12:55;1.58;;;1.35;;
14272;SDS011;7220;49.450;11.052;2022-09-02T13:17:20;2.97;;;1.27;;
14272;SDS011;7220;49.450;11.052;2022-09-02T13:34:46;1.50;;;1.10;;
14272;SDS011;7220;49.450;11.052;2022-09-02T13:38:48;3.13;;;1.45;;
14272;SDS011;7220;49.450;11.052;2022-09-02T13:42:50;2.50;;;1.53;;
14272;SDS011;7220;49.450;11.052;2022-09-02T13:47:01;2.45;;;1.27;;
14272;SDS011;7220;49.450;11.052;2022-09-02T13:51:08;3.85;;;2.28;;
14272;SDS011;7220;49.450;11.052;2022-09-02T13:55:13;3.08;;;1.85;;
14272;SDS011;7220;49.450;11.052;2022-09-02T13:59:16;2.55;;;2.03;;
14272;SDS011;7220;49.450;11.052;2022-09-02T14:03:33;5.10;;;2.08;;
14272;SDS011;7220;49.450;11.052;2022-09-02T14:07:39;1.55;;;1.17;;
14272;SDS011;7220;49.450;11.052;2022-09-02T14:11:43;1.98;;;1.45;;
14272;SDS011;7220;49.450;11.052;2022-09-02T14:15:47;2.15;;;1.90;;
14272;SDS011;7220;49.450;11.052;2022-09-02T14:19:48;1.50;;;1.40;;
14272;SDS011;7220;49.450;11.052;2022-09-02T14:23:50;1.42;;;1.33;;
14272;SDS011;7220;49.450;11.052;2022-09-02T14:27:52;1.88;;;1.20;;
14272;SDS011;7220;49.450;11.052;2022-09-02T14:32:02;2.00;;;1.38;;
14272;SDS011;7220;49.450;11.052;2022-09-02T14:40:14;1.90;;;1.13;;
14272;SDS011;7220;49.450;11.052;2022-09-02T14:48:36;1.50;;;1.40;;
14272;SDS011;7220;49.450;11.052;2022-09-02T14:52:37;1.42;;;1.33;;
14272;SDS011;7220;49.450;11.052;2022-09-02T14:56:49;3.22;;;2.10;;
14272;SDS011;7220;49.450;11.052;2022-09-02T15:00:52;3.50;;;3.20;;
14272;SDS011;7220;49.450;11.052;2022-09-02T15:04:55;3.05;;;1.65;;
14272;SDS011;7220;49.450;11.052;2022-09-02T15:09:00;2.50;;;1.65;;
14272;SDS011;7220;49.450;11.052;2022-09-02T15:13:03;1.92;;;1.35;;
14272;SDS011;7220;49.450;11.052;2022-09-02T15:17:05;5.37;;;1.47;;
14272;SDS011;7220;49.450;11.052;2022-09-02T15:21:07;1.85;;;1.20;;
14272;SDS011;7220;49.450;11.052;2022-09-02T15:25:08;3.58;;;1.50;;
14272;SDS011;7220;49.450;11.052;2022-09-02T15:29:08;1.67;;;1.30;;
14272;SDS011;7220;49.450;11.052;2022-09-02T15:33:08;2.67;;;1.50;;
14272;SDS011;7220;49.450;11.052;2022-09-02T15:37:09;2.17;;;1.77;;
14272;SDS011;7220;49.450;11.052;2022-09-02T15:41:13;1.60;;;1.45;;
14272;SDS011;7220;49.450;11.052;2022-09-02T15:45:21;1.63;;;1.40;;
14272;SDS011;7220;49.450;11.052;2022-09-02T15:49:22;1.50;;;1.40;;
14272;SDS011;7220;49.450;11.052;2022-09-02T15:53:23;1.92;;;1.52;;
14272;SDS011;7220;49.450;11.052;2022-09-02T15:57:23;2.70;;;1.50;;
14272;SDS011;7220;49.450;11.052;2022-09-02T16:01:27;3.85;;;2.03;;
14272;SDS011;7220;49.450;11.052;2022-09-02T16:05:29;3.92;;;1.35;;
14272;SDS011;7220;49.450;11.052;2022-09-02T16:09:31;2.30;;;1.50;;
14272;SDS011;7220;49.450;11.052;2022-09-02T16:13:31;1.83;;;1.52;;
14272;SDS011;7220;49.450;11.052;2022-09-02T16:17:33;1.30;;;1.20;;
14272;SDS011;7220;49.450;11.052;2022-09-02T16:21:34;2.35;;;2.15;;
14272;SDS011;7220;49.450;11.052;2022-09-02T16:25:38;1.38;;;1.27;;
14272;SDS011;7220;49.450;11.052;2022-09-02T16:29:38;1.47;;;1.37;;
14272;SDS011;7220;49.450;11.052;2022-09-02T16:33:40;2.35;;;1.80;;
14272;SDS011;7220;49.450;11.052;2022-09-02T16:37:41;1.48;;;1.38;;
14272;SDS011;7220;49.450;11.052;2022-09-02T16:41:43;2.67;;;1.85;;
14272;SDS011;7220;49.450;11.052;2022-09-02T16:45:48;2.70;;;1.52;;
14272;SDS011;7220;49.450;11.052;2022-09-02T16:49:52;1.70;;;1.40;;
14272;SDS011;7220;49.450;11.052;2022-09-02T16:53:53;2.33;;;1.50;;
14272;SDS011;7220;49.450;11.052;2022-09-02T16:57:55;2.47;;;1.48;;
14272;SDS011;7220;49.450;11.052;2022-09-02T17:01:56;1.58;;;1.38;;
14272;SDS011;7220;49.450;11.052;2022-09-02T17:05:57;2.08;;;1.60;;
14272;SDS011;7220;49.450;11.052;2022-09-02T17:09:58;2.13;;;1.52;;
14272;SDS011;7220;49.450;11.052;2022-09-02T17:14:03;2.10;;;1.60;;
14272;SDS011;7220;49.450;11.052;2022-09-02T17:18:16;2.25;;;1.67;;
14272;SDS011;7220;49.450;11.052;2022-09-02T17:22:16;2.07;;;1.80;;
14272;SDS011;7220;49.450;11.052;2022-09-02T17:26:17;2.97;;;1.53;;
14272;SDS011;7220;49.450;11.052;2022-09-02T17:30:19;4.90;;;1.85;;
14272;SDS011;7220;49.450;11.052;2022-09-02T17:34:19;3.00;;;1.40;;
14272;SDS011;7220;49.450;11.052;2022-09-02T17:38:20;1.93;;;1.50;;
14272;SDS011;7220;49.450;11.052;2022-09-02T17:42:20;1.83;;;1.43;;
14272;SDS011;7220;49.450;11.052;2022-09-02T17:46:20;1.70;;;1.60;;
14272;SDS011;7220;49.450;11.052;2022-09-02T17:50:21;1.90;;;1.70;;
14272;SDS011;7220;49.450;11.052;2022-09-02T17:54:21;1.70;;;1.60;;
14272;SDS011;7220;49.450;11.052;2022-09-02T17:58:22;1.67;;;1.58;;
14272;SDS011;7220;49.450;11.052;2022-09-02T18:02:29;1.92;;;1.50;;
14272;SDS011;7220;49.450;11.052;2022-09-02T18:06:39;2.45;;;1.60;;
14272;SDS011;7220;49.450;11.052;2022-09-02T18:10:51;1.60;;;1.50;;
14272;SDS011;7220;49.450;11.052;2022-09-02T18:14:55;2.22;;;1.70;;
14272;SDS011;7220;49.450;11.052;2022-09-02T18:23:23;2.72;;;1.90;;
14272;SDS011;7220;49.450;11.052;2022-09-02T18:32:01;1.92;;;1.73;;
14272;SDS011;7220;49.450;11.052;2022-09-02T18:40:42;4.28;;;1.63;;
14272;SDS011;7220;49.450;11.052;2022-09-02T18:49:12;2.50;;;2.10;;
14272;SDS011;7220;49.450;11.052;2022-09-02T18:53:15;3.13;;;1.77;;
14272;SDS011;7220;49.450;11.052;2022-09-02T18:57:19;3.50;;;2.33;;
14272;SDS011;7220;49.450;11.052;2022-09-02T19:01:24;3.83;;;2.28;;
14272;SDS011;7220;49.450;11.052;2022-09-02T19:05:29;2.50;;;2.22;;
14272;SDS011;7220;49.450;11.052;2022-09-02T19:09:31;2.40;;;1.77;;
14272;SDS011;7220;49.450;11.052;2022-09-02T19:13:35;2.33;;;2.00;;
14272;SDS011;7220;49.450;11.052;2022-09-02T19:17:45;3.67;;;1.92;;
14272;SDS011;7220;49.450;11.052;2022-09-02T19:21:49;2.42;;;2.00;;
14272;SDS011;7220;49.450;11.052;2022-09-02T19:25:53;2.33;;;2.13;;
14272;SDS011;7220;49.450;11.052;2022-09-02T19:29:57;2.15;;;1.73;;
14272;SDS011;7220;49.450;11.052;2022-09-02T19:34:01;2.15;;;2.00;;
14272;SDS011;7220;49.450;11.052;2022-09-02T19:38:03;2.20;;;2.00;;
14272;SDS011;7220;49.450;11.052;2022-09-02T19:42:04;2.03;;;1.83;;
14272;SDS011;7220;49.450;11.052;2022-09-02T19:46:05;2.10;;;1.90;;
14272;SDS011;7220;49.450;11.052;2022-09-02T19:50:09;2.22;;;1.80;;
14272;SDS011;7220;49.450;11.052;2022-09-02T19:54:11;2.30;;;2.10;;
14272;SDS011;7220;49.450;11.052;2022-09-02T19:58:12;2.05;;;1.85;;
14272;SDS011;7220;49.450;11.052;2022-09-02T20:02:13;2.17;;;1.98;;
14272;SDS011;7220;49.450;11.052;2022-09-02T20:06:14;2.17;;;1.98;;
14272;SDS011;7220;49.450;11.052;2022-09-02T20:10:14;1.90;;;1.80;;
14272;SDS011;7220;49.450;11.052;2022-09-02T20:14:16;2.88;;;2.00;;
14272;SDS011;7220;49.450;11.052;2022-09-02T20:18:17;2.50;;;1.92;;
14272;SDS011;7220;49.450;11.052;2022-09-02T20:22:20;2.95;;;1.83;;
14272;SDS011;7220;49.450;11.052;2022-09-02T20:30:59;2.00;;;1.80;;
14272;SDS011;7220;49.450;11.052;2022-09-02T20:35:10;2.33;;;1.92;;
14272;SDS011;7220;49.450;11.052;2022-09-02T20:48:24;2.17;;;1.92;;
14272;SDS011;7220;49.450;11.052;2022-09-02T21:01:49;2.83;;;2.15;;
14272;SDS011;7220;49.450;11.052;2022-09-02T21:05:57;2.20;;;1.85;;
14272;SDS011;7220;49.450;11.052;2022-09-02T21:10:08;2.38;;;1.80;;
14272;SDS011;7220;49.450;11.052;2022-09-02T21:14:19;1.90;;;1.80;;
14272;SDS011;7220;49.450;11.052;2022-09-02T21:18:25;2.42;;;2.03;;
14272;SDS011;7220;49.450;11.052;2022-09-02T21:22:34;1.83;;;1.73;;
14272;SDS011;7220;49.450;11.052;2022-09-02T21:26:43;2.20;;;2.00;;
14272;SDS011;7220;49.450;11.052;2022-09-02T21:30:50;3.85;;;2.60;;
14272;SDS011;7220;49.450;11.052;2022-09-02T21:34:57;1.98;;;1.83;;
14272;SDS011;7220;49.450;11.052;2022-09-02T21:39:06;2.85;;;1.80;;
14272;SDS011;7220;49.450;11.052;2022-09-02T21:51:37;2.50;;;2.00;;
14272;SDS011;7220;49.450;11.052;2022-09-02T21:55:54;2.53;;;2.13;;
14272;SDS011;7220;49.450;11.052;2022-09-02T22:00:08;3.00;;;2.03;;
14272;SDS011;7220;49.450;11.052;2022-09-02T22:13:32;3.08;;;2.10;;
14272;SDS011;7220;49.450;11.052;2022-09-02T22:21:46;4.20;;;2.17;;
14272;SDS011;7220;49.450;11.052;2022-09-02T22:25:49;2.17;;;1.98;;
14272;SDS011;7220;49.450;11.052;2022-09-02T22:33:59;2.20;;;2.00;;
14272;SDS011;7220;49.450;11.052;2022-09-02T22:42:34;3.65;;;2.10;;
14272;SDS011;7220;49.450;11.052;2022-09-02T22:46:46;2.30;;;2.10;;
14272;SDS011;7220;49.450;11.052;2022-09-02T22:51:25;2.10;;;1.83;;
14272;SDS011;7220;49.450;11.052;2022-09-02T22:55:58;2.17;;;1.98;;
14272;SDS011;7220;49.450;11.052;2022-09-02T23:00:07;3.08;;;2.13;;
14272;SDS011;7220;49.450;11.052;2022-09-02T23:04:14;5.82;;;2.17;;
14272;SDS011;7220;49.450;11.052;2022-09-02T23:08:16;4.18;;;2.55;;
14272;SDS011;7220;49.450;11.052;2022-09-02T23:12:42;2.33;;;2.13;;
14272;SDS011;7220;49.450;11.052;2022-09-02T23:16:59;2.13;;;1.92;;
14272;SDS011;7220;49.450;11.052;2022-09-02T23:21:22;2.00;;;1.90;;
14272;SDS011;7220;49.450;11.052;2022-09-02T23:29:48;2.38;;;1.95;;
14272;SDS011;7220;49.450;11.052;2022-09-02T23:42:46;2.45;;;1.98;;
14272;SDS011;7220;49.450;11.052;2022-09-02T23:51:31;2.17;;;1.80;;
14272;SDS011;7220;49.450;11.052;2022-09-02T23:55:47;2.03;;;1.83;;
